sensor_id;sensor_type;location;lat;lon;timestamp;P1;durP1;ratioP1;P2;durP2;ratioP2
16352;SDS011;8286;51.274;9.542;2023-01-25T00:01:42;12.87;;;6.97;;
16352;SDS011;8286;51.274;9.542;2023-01-25T00:04:09;10.73;;;4.90;;
16352;SDS011;8286;51.274;9.542;2023-01-25T00:06:37;8.23;;;5.57;;
16352;SDS011;8286;51.274;9.542;2023-01-25T00:09:04;6.50;;;4.60;;
16352;SDS011;8286;51.274;9.542;2023-01-25T00:11:30;10.20;;;5.83;;
16352;SDS011;8286;51.274;9.542;2023-01-25T00:13:57;8.90;;;5.63;;
16352;SDS011;8286;51.274;9.542;2023-01-25T00:16:23;9.43;;;5.73;;
16352;SDS011;8286;51.274;9.542;2023-01-25T00:18:50;9.27;;;5.53;;
16352;SDS011;8286;51.274;9.542;2023-01-25T00:21:17;9.57;;;5.13;;
16352;SDS011;8286;51.274;9.542;2023-01-25T00:23:46;9.50;;;4.70;;
16352;SDS011;8286;51.274;9.542;2023-01-25T00:26:13;9.03;;;5.30;;
16352;SDS011;8286;51.274;9.542;2023-01-25T00:28:39;8.37;;;5.33;;
16352;SDS011;8286;51.274;9.542;2023-01-25T00:31:06;9.30;;;5.87;;
16352;SDS011;8286;51.274;9.542;2023-01-25T00:33:38;8.60;;;5.40;;
16352;SDS011;8286;51.274;9.542;2023-01-25T00:38:59;9.30;;;5.27;;
16352;SDS011;8286;51.274;9.542;2023-01-25T00:41:26;11.37;;;6.23;;
16352;SDS011;8286;51.274;9.542;2023-01-25T00:43:52;9.67;;;5.97;;
16352;SDS011;8286;51.274;9.542;2023-01-25T00:46:19;9.40;;;6.07;;
16352;SDS011;8286;51.274;9.542;2023-01-25T00:48:45;9.37;;;5.43;;
16352;SDS011;8286;51.274;9.542;2023-01-25T00:51:12;10.73;;;5.60;;
16352;SDS011;8286;51.274;9.542;2023-01-25T00:53:39;9.13;;;4.73;;
16352;SDS011;8286;51.274;9.542;2023-01-25T00:56:07;8.70;;;5.70;;
16352;SDS011;8286;51.274;9.542;2023-01-25T00:58:34;9.00;;;5.50;;
16352;SDS011;8286;51.274;9.542;2023-01-25T01:01:00;10.30;;;5.50;;
16352;SDS011;8286;51.274;9.542;2023-01-25T01:03:27;12.63;;;6.60;;
16352;SDS011;8286;51.274;9.542;2023-01-25T01:06:00;12.00;;;5.70;;
16352;SDS011;8286;51.274;9.542;2023-01-25T01:08:26;10.10;;;5.67;;
16352;SDS011;8286;51.274;9.542;2023-01-25T01:10:57;10.63;;;5.43;;
16352;SDS011;8286;51.274;9.542;2023-01-25T01:13:25;8.50;;;5.10;;
16352;SDS011;8286;51.274;9.542;2023-01-25T01:15:52;12.27;;;6.30;;
16352;SDS011;8286;51.274;9.542;2023-01-25T01:18:18;10.37;;;5.63;;
16352;SDS011;8286;51.274;9.542;2023-01-25T01:20:47;10.00;;;5.60;;
16352;SDS011;8286;51.274;9.542;2023-01-25T01:23:14;9.07;;;5.77;;
16352;SDS011;8286;51.274;9.542;2023-01-25T01:25:41;11.87;;;5.73;;
16352;SDS011;8286;51.274;9.542;2023-01-25T01:28:07;11.30;;;6.03;;
16352;SDS011;8286;51.274;9.542;2023-01-25T01:30:36;14.80;;;6.20;;
16352;SDS011;8286;51.274;9.542;2023-01-25T01:33:03;9.37;;;5.20;;
16352;SDS011;8286;51.274;9.542;2023-01-25T01:35:30;10.20;;;5.93;;
16352;SDS011;8286;51.274;9.542;2023-01-25T01:37:56;12.50;;;6.33;;
16352;SDS011;8286;51.274;9.542;2023-01-25T01:40:23;10.57;;;5.73;;
16352;SDS011;8286;51.274;9.542;2023-01-25T01:42:56;10.30;;;5.50;;
16352;SDS011;8286;51.274;9.542;2023-01-25T01:48:15;11.83;;;6.57;;
16352;SDS011;8286;51.274;9.542;2023-01-25T01:50:44;10.47;;;6.17;;
16352;SDS011;8286;51.274;9.542;2023-01-25T01:53:11;11.30;;;6.70;;
16352;SDS011;8286;51.274;9.542;2023-01-25T01:55:38;13.33;;;6.73;;
16352;SDS011;8286;51.274;9.542;2023-01-25T01:58:04;11.97;;;6.10;;
16352;SDS011;8286;51.274;9.542;2023-01-25T02:00:32;11.93;;;5.90;;
16352;SDS011;8286;51.274;9.542;2023-01-25T02:03:01;11.93;;;6.13;;
16352;SDS011;8286;51.274;9.542;2023-01-25T02:05:29;11.90;;;5.90;;
16352;SDS011;8286;51.274;9.542;2023-01-25T02:08:00;12.33;;;6.37;;
16352;SDS011;8286;51.274;9.542;2023-01-25T02:10:28;9.87;;;5.87;;
16352;SDS011;8286;51.274;9.542;2023-01-25T02:12:55;12.87;;;6.60;;
16352;SDS011;8286;51.274;9.542;2023-01-25T02:15:25;11.33;;;6.63;;
16352;SDS011;8286;51.274;9.542;2023-01-25T02:17:53;11.43;;;6.33;;
16352;SDS011;8286;51.274;9.542;2023-01-25T02:20:22;11.90;;;5.30;;
16352;SDS011;8286;51.274;9.542;2023-01-25T02:22:54;11.07;;;5.00;;
16352;SDS011;8286;51.274;9.542;2023-01-25T02:25:26;11.43;;;6.03;;
16352;SDS011;8286;51.274;9.542;2023-01-25T02:27:54;13.60;;;6.33;;
16352;SDS011;8286;51.274;9.542;2023-01-25T02:30:22;11.93;;;6.17;;
16352;SDS011;8286;51.274;9.542;2023-01-25T02:32:49;11.17;;;5.30;;
16352;SDS011;8286;51.274;9.542;2023-01-25T02:35:19;11.87;;;5.93;;
16352;SDS011;8286;51.274;9.542;2023-01-25T02:37:46;14.63;;;6.47;;
16352;SDS011;8286;51.274;9.542;2023-01-25T02:40:12;9.53;;;5.20;;
16352;SDS011;8286;51.274;9.542;2023-01-25T02:42:41;9.33;;;5.70;;
16352;SDS011;8286;51.274;9.542;2023-01-25T02:45:09;12.50;;;6.63;;
16352;SDS011;8286;51.274;9.542;2023-01-25T02:47:39;13.93;;;6.40;;
16352;SDS011;8286;51.274;9.542;2023-01-25T02:50:05;10.83;;;5.53;;
16352;SDS011;8286;51.274;9.542;2023-01-25T02:52:33;11.30;;;5.33;;
16352;SDS011;8286;51.274;9.542;2023-01-25T02:54:59;12.53;;;6.03;;
16352;SDS011;8286;51.274;9.542;2023-01-25T02:57:26;12.53;;;5.80;;
16352;SDS011;8286;51.274;9.542;2023-01-25T02:59:53;11.13;;;6.07;;
16352;SDS011;8286;51.274;9.542;2023-01-25T03:02:20;9.67;;;5.37;;
16352;SDS011;8286;51.274;9.542;2023-01-25T03:04:46;9.07;;;5.03;;
16352;SDS011;8286;51.274;9.542;2023-01-25T03:07:13;12.83;;;5.87;;
16352;SDS011;8286;51.274;9.542;2023-01-25T03:09:39;11.13;;;6.60;;
16352;SDS011;8286;51.274;9.542;2023-01-25T03:12:06;14.20;;;7.03;;
16352;SDS011;8286;51.274;9.542;2023-01-25T03:14:33;14.33;;;6.83;;
16352;SDS011;8286;51.274;9.542;2023-01-25T03:17:01;13.07;;;6.10;;
16352;SDS011;8286;51.274;9.542;2023-01-25T03:19:28;15.80;;;6.57;;
16352;SDS011;8286;51.274;9.542;2023-01-25T03:21:54;9.80;;;5.30;;
16352;SDS011;8286;51.274;9.542;2023-01-25T03:24:23;13.63;;;5.70;;
16352;SDS011;8286;51.274;9.542;2023-01-25T03:26:49;14.40;;;6.77;;
16352;SDS011;8286;51.274;9.542;2023-01-25T03:29:33;11.87;;;6.37;;
16352;SDS011;8286;51.274;9.542;2023-01-25T03:32:01;13.63;;;6.43;;
16352;SDS011;8286;51.274;9.542;2023-01-25T03:34:28;9.40;;;6.07;;
16352;SDS011;8286;51.274;9.542;2023-01-25T03:36:55;10.23;;;6.20;;
16352;SDS011;8286;51.274;9.542;2023-01-25T03:39:21;11.67;;;5.77;;
16352;SDS011;8286;51.274;9.542;2023-01-25T03:41:48;12.70;;;6.50;;
16352;SDS011;8286;51.274;9.542;2023-01-25T03:44:14;10.87;;;5.63;;
16352;SDS011;8286;51.274;9.542;2023-01-25T03:46:41;13.70;;;5.40;;
16352;SDS011;8286;51.274;9.542;2023-01-25T03:49:09;8.27;;;5.10;;
16352;SDS011;8286;51.274;9.542;2023-01-25T03:51:35;10.37;;;5.67;;
16352;SDS011;8286;51.274;9.542;2023-01-25T03:54:02;7.90;;;4.37;;
16352;SDS011;8286;51.274;9.542;2023-01-25T03:56:29;11.03;;;5.40;;
16352;SDS011;8286;51.274;9.542;2023-01-25T03:58:56;11.17;;;5.30;;
16352;SDS011;8286;51.274;9.542;2023-01-25T04:01:22;11.90;;;5.80;;
16352;SDS011;8286;51.274;9.542;2023-01-25T04:03:49;11.13;;;5.17;;
16352;SDS011;8286;51.274;9.542;2023-01-25T04:06:17;12.80;;;5.57;;
16352;SDS011;8286;51.274;9.542;2023-01-25T04:08:43;7.90;;;5.27;;
16352;SDS011;8286;51.274;9.542;2023-01-25T04:11:10;10.10;;;5.47;;
16352;SDS011;8286;51.274;9.542;2023-01-25T04:13:37;10.17;;;5.33;;
16352;SDS011;8286;51.274;9.542;2023-01-25T04:16:04;9.37;;;5.40;;
16352;SDS011;8286;51.274;9.542;2023-01-25T04:18:32;9.77;;;5.00;;
16352;SDS011;8286;51.274;9.542;2023-01-25T04:20:58;11.40;;;5.60;;
16352;SDS011;8286;51.274;9.542;2023-01-25T04:23:26;11.73;;;5.80;;
16352;SDS011;8286;51.274;9.542;2023-01-25T04:25:53;10.80;;;5.60;;
16352;SDS011;8286;51.274;9.542;2023-01-25T04:28:20;9.27;;;5.27;;
16352;SDS011;8286;51.274;9.542;2023-01-25T04:30:47;9.47;;;6.00;;
16352;SDS011;8286;51.274;9.542;2023-01-25T04:33:13;10.60;;;5.70;;
16352;SDS011;8286;51.274;9.542;2023-01-25T04:35:40;11.10;;;5.00;;
16352;SDS011;8286;51.274;9.542;2023-01-25T04:38:06;12.77;;;6.37;;
16352;SDS011;8286;51.274;9.542;2023-01-25T04:40:35;13.03;;;6.20;;
16352;SDS011;8286;51.274;9.542;2023-01-25T04:43:02;9.73;;;5.57;;
16352;SDS011;8286;51.274;9.542;2023-01-25T04:45:30;9.27;;;4.90;;
16352;SDS011;8286;51.274;9.542;2023-01-25T04:47:58;7.57;;;4.73;;
16352;SDS011;8286;51.274;9.542;2023-01-25T04:50:26;9.80;;;5.47;;
16352;SDS011;8286;51.274;9.542;2023-01-25T04:52:53;8.83;;;4.67;;
16352;SDS011;8286;51.274;9.542;2023-01-25T04:55:19;8.93;;;5.53;;
16352;SDS011;8286;51.274;9.542;2023-01-25T04:57:49;10.57;;;5.97;;
16352;SDS011;8286;51.274;9.542;2023-01-25T05:00:16;7.83;;;4.50;;
16352;SDS011;8286;51.274;9.542;2023-01-25T05:02:43;12.63;;;5.70;;
16352;SDS011;8286;51.274;9.542;2023-01-25T05:05:10;10.53;;;5.00;;
16352;SDS011;8286;51.274;9.542;2023-01-25T05:07:36;10.03;;;5.50;;
16352;SDS011;8286;51.274;9.542;2023-01-25T05:10:03;9.40;;;5.30;;
16352;SDS011;8286;51.274;9.542;2023-01-25T05:12:30;10.07;;;5.33;;
16352;SDS011;8286;51.274;9.542;2023-01-25T05:14:58;10.87;;;5.57;;
16352;SDS011;8286;51.274;9.542;2023-01-25T05:17:25;9.60;;;5.33;;
16352;SDS011;8286;51.274;9.542;2023-01-25T05:19:51;8.73;;;5.37;;
16352;SDS011;8286;51.274;9.542;2023-01-25T05:22:18;9.90;;;5.63;;
16352;SDS011;8286;51.274;9.542;2023-01-25T05:24:46;10.90;;;5.37;;
16352;SDS011;8286;51.274;9.542;2023-01-25T05:27:13;11.70;;;6.00;;
16352;SDS011;8286;51.274;9.542;2023-01-25T05:29:41;10.10;;;5.73;;
16352;SDS011;8286;51.274;9.542;2023-01-25T05:32:10;14.97;;;6.57;;
16352;SDS011;8286;51.274;9.542;2023-01-25T05:34:38;10.53;;;6.13;;
16352;SDS011;8286;51.274;9.542;2023-01-25T05:37:06;13.63;;;5.40;;
16352;SDS011;8286;51.274;9.542;2023-01-25T05:39:33;14.07;;;5.50;;
16352;SDS011;8286;51.274;9.542;2023-01-25T05:42:00;10.77;;;5.00;;
16352;SDS011;8286;51.274;9.542;2023-01-25T05:44:26;8.87;;;4.53;;
16352;SDS011;8286;51.274;9.542;2023-01-25T05:46:53;11.03;;;5.10;;
16352;SDS011;8286;51.274;9.542;2023-01-25T05:49:21;8.83;;;5.27;;
16352;SDS011;8286;51.274;9.542;2023-01-25T05:51:47;10.33;;;5.10;;
16352;SDS011;8286;51.274;9.542;2023-01-25T05:54:15;11.10;;;4.43;;
16352;SDS011;8286;51.274;9.542;2023-01-25T05:56:42;9.00;;;5.13;;
16352;SDS011;8286;51.274;9.542;2023-01-25T05:59:09;8.43;;;4.90;;
16352;SDS011;8286;51.274;9.542;2023-01-25T06:01:36;10.43;;;5.60;;
16352;SDS011;8286;51.274;9.542;2023-01-25T06:04:03;9.13;;;4.90;;
16352;SDS011;8286;51.274;9.542;2023-01-25T06:06:31;12.07;;;5.77;;
16352;SDS011;8286;51.274;9.542;2023-01-25T06:08:59;9.03;;;4.57;;
16352;SDS011;8286;51.274;9.542;2023-01-25T06:11:26;10.00;;;5.03;;
16352;SDS011;8286;51.274;9.542;2023-01-25T06:13:52;9.53;;;5.73;;
16352;SDS011;8286;51.274;9.542;2023-01-25T06:16:19;7.47;;;4.40;;
16352;SDS011;8286;51.274;9.542;2023-01-25T06:18:45;9.50;;;5.03;;
16352;SDS011;8286;51.274;9.542;2023-01-25T06:21:12;9.13;;;4.90;;
16352;SDS011;8286;51.274;9.542;2023-01-25T06:23:40;9.47;;;5.40;;
16352;SDS011;8286;51.274;9.542;2023-01-25T06:26:07;8.57;;;4.17;;
16352;SDS011;8286;51.274;9.542;2023-01-25T06:28:36;8.47;;;4.50;;
16352;SDS011;8286;51.274;9.542;2023-01-25T06:31:03;7.90;;;4.13;;
16352;SDS011;8286;51.274;9.542;2023-01-25T06:33:30;8.87;;;4.60;;
16352;SDS011;8286;51.274;9.542;2023-01-25T06:36:01;12.40;;;5.00;;
16352;SDS011;8286;51.274;9.542;2023-01-25T06:38:28;11.13;;;5.03;;
16352;SDS011;8286;51.274;9.542;2023-01-25T06:40:58;11.77;;;5.03;;
16352;SDS011;8286;51.274;9.542;2023-01-25T06:43:25;10.20;;;5.33;;
16352;SDS011;8286;51.274;9.542;2023-01-25T06:45:56;11.73;;;5.10;;
16352;SDS011;8286;51.274;9.542;2023-01-25T06:48:23;9.63;;;4.70;;
16352;SDS011;8286;51.274;9.542;2023-01-25T06:50:54;12.03;;;6.33;;
16352;SDS011;8286;51.274;9.542;2023-01-25T06:53:21;9.30;;;4.43;;
16352;SDS011;8286;51.274;9.542;2023-01-25T06:55:54;9.27;;;4.50;;
16352;SDS011;8286;51.274;9.542;2023-01-25T06:58:23;7.80;;;4.10;;
16352;SDS011;8286;51.274;9.542;2023-01-25T07:00:50;8.17;;;4.27;;
16352;SDS011;8286;51.274;9.542;2023-01-25T07:03:17;5.73;;;3.93;;
16352;SDS011;8286;51.274;9.542;2023-01-25T07:05:43;6.27;;;3.80;;
16352;SDS011;8286;51.274;9.542;2023-01-25T07:08:10;7.43;;;3.80;;
16352;SDS011;8286;51.274;9.542;2023-01-25T07:10:37;5.07;;;3.17;;
16352;SDS011;8286;51.274;9.542;2023-01-25T07:13:03;7.10;;;4.10;;
16352;SDS011;8286;51.274;9.542;2023-01-25T07:15:31;7.63;;;4.00;;
16352;SDS011;8286;51.274;9.542;2023-01-25T07:17:57;8.00;;;4.37;;
16352;SDS011;8286;51.274;9.542;2023-01-25T07:20:24;10.57;;;4.30;;
16352;SDS011;8286;51.274;9.542;2023-01-25T07:22:50;8.47;;;3.70;;
16352;SDS011;8286;51.274;9.542;2023-01-25T07:25:17;8.23;;;3.97;;
16352;SDS011;8286;51.274;9.542;2023-01-25T07:27:43;6.33;;;3.87;;
16352;SDS011;8286;51.274;9.542;2023-01-25T07:30:10;8.57;;;4.47;;
16352;SDS011;8286;51.274;9.542;2023-01-25T07:32:39;7.97;;;3.80;;
16352;SDS011;8286;51.274;9.542;2023-01-25T07:35:06;8.60;;;3.63;;
16352;SDS011;8286;51.274;9.542;2023-01-25T07:37:33;7.00;;;3.83;;
16352;SDS011;8286;51.274;9.542;2023-01-25T07:40:00;7.27;;;4.13;;
16352;SDS011;8286;51.274;9.542;2023-01-25T07:42:26;5.67;;;3.20;;
16352;SDS011;8286;51.274;9.542;2023-01-25T07:44:53;8.07;;;4.30;;
16352;SDS011;8286;51.274;9.542;2023-01-25T07:47:19;6.40;;;3.30;;
16352;SDS011;8286;51.274;9.542;2023-01-25T07:49:47;7.43;;;3.90;;
16352;SDS011;8286;51.274;9.542;2023-01-25T07:52:14;6.37;;;3.77;;
16352;SDS011;8286;51.274;9.542;2023-01-25T07:54:40;8.80;;;4.07;;
16352;SDS011;8286;51.274;9.542;2023-01-25T07:57:07;7.47;;;4.30;;
16352;SDS011;8286;51.274;9.542;2023-01-25T07:59:34;8.33;;;4.70;;
16352;SDS011;8286;51.274;9.542;2023-01-25T08:02:00;8.73;;;4.57;;
16352;SDS011;8286;51.274;9.542;2023-01-25T08:04:27;7.17;;;3.87;;
16352;SDS011;8286;51.274;9.542;2023-01-25T08:06:55;7.73;;;4.33;;
16352;SDS011;8286;51.274;9.542;2023-01-25T08:09:21;7.47;;;4.47;;
16352;SDS011;8286;51.274;9.542;2023-01-25T08:11:48;9.37;;;4.10;;
16352;SDS011;8286;51.274;9.542;2023-01-25T08:14:14;6.73;;;3.67;;
16352;SDS011;8286;51.274;9.542;2023-01-25T08:16:41;6.40;;;3.63;;
16352;SDS011;8286;51.274;9.542;2023-01-25T08:19:08;6.93;;;3.97;;
16352;SDS011;8286;51.274;9.542;2023-01-25T08:21:35;7.93;;;4.50;;
16352;SDS011;8286;51.274;9.542;2023-01-25T08:24:04;4.77;;;3.37;;
16352;SDS011;8286;51.274;9.542;2023-01-25T08:26:32;5.83;;;3.93;;
16352;SDS011;8286;51.274;9.542;2023-01-25T08:28:59;8.00;;;4.10;;
16352;SDS011;8286;51.274;9.542;2023-01-25T08:31:26;7.43;;;3.90;;
16352;SDS011;8286;51.274;9.542;2023-01-25T08:33:54;8.73;;;4.00;;
16352;SDS011;8286;51.274;9.542;2023-01-25T08:36:22;9.00;;;3.80;;
16352;SDS011;8286;51.274;9.542;2023-01-25T08:38:52;6.73;;;4.23;;
16352;SDS011;8286;51.274;9.542;2023-01-25T08:41:20;9.13;;;4.07;;
16352;SDS011;8286;51.274;9.542;2023-01-25T08:43:47;10.17;;;4.67;;
16352;SDS011;8286;51.274;9.542;2023-01-25T08:46:16;8.63;;;5.00;;
16352;SDS011;8286;51.274;9.542;2023-01-25T08:48:43;10.33;;;4.57;;
16352;SDS011;8286;51.274;9.542;2023-01-25T08:51:10;9.80;;;4.20;;
16352;SDS011;8286;51.274;9.542;2023-01-25T08:53:37;9.43;;;4.60;;
16352;SDS011;8286;51.274;9.542;2023-01-25T08:56:04;9.73;;;4.87;;
16352;SDS011;8286;51.274;9.542;2023-01-25T08:58:33;8.47;;;4.70;;
16352;SDS011;8286;51.274;9.542;2023-01-25T09:01:02;7.90;;;4.67;;
16352;SDS011;8286;51.274;9.542;2023-01-25T09:03:29;11.10;;;5.97;;
16352;SDS011;8286;51.274;9.542;2023-01-25T09:05:56;9.07;;;4.70;;
16352;SDS011;8286;51.274;9.542;2023-01-25T09:08:23;12.73;;;5.43;;
16352;SDS011;8286;51.274;9.542;2023-01-25T09:10:49;8.60;;;4.43;;
16352;SDS011;8286;51.274;9.542;2023-01-25T09:13:15;7.43;;;4.60;;
16352;SDS011;8286;51.274;9.542;2023-01-25T09:15:43;7.90;;;4.30;;
16352;SDS011;8286;51.274;9.542;2023-01-25T09:18:10;6.30;;;3.77;;
16352;SDS011;8286;51.274;9.542;2023-01-25T09:20:37;7.30;;;3.83;;
16352;SDS011;8286;51.274;9.542;2023-01-25T09:23:03;6.00;;;3.90;;
16352;SDS011;8286;51.274;9.542;2023-01-25T09:25:30;8.20;;;3.90;;
16352;SDS011;8286;51.274;9.542;2023-01-25T09:27:56;9.63;;;4.23;;
16352;SDS011;8286;51.274;9.542;2023-01-25T09:30:23;6.83;;;4.17;;
16352;SDS011;8286;51.274;9.542;2023-01-25T09:32:51;8.57;;;4.47;;
16352;SDS011;8286;51.274;9.542;2023-01-25T09:35:17;8.73;;;4.97;;
16352;SDS011;8286;51.274;9.542;2023-01-25T09:37:44;7.47;;;4.33;;
16352;SDS011;8286;51.274;9.542;2023-01-25T09:40:12;7.57;;;3.97;;
16352;SDS011;8286;51.274;9.542;2023-01-25T09:42:55;7.63;;;4.30;;
16352;SDS011;8286;51.274;9.542;2023-01-25T09:45:30;10.27;;;4.43;;
16352;SDS011;8286;51.274;9.542;2023-01-25T09:48:01;6.73;;;4.20;;
16352;SDS011;8286;51.274;9.542;2023-01-25T09:50:34;6.77;;;3.90;;
16352;SDS011;8286;51.274;9.542;2023-01-25T09:53:06;9.30;;;4.77;;
16352;SDS011;8286;51.274;9.542;2023-01-25T09:55:40;6.80;;;4.37;;
16352;SDS011;8286;51.274;9.542;2023-01-25T09:58:09;8.47;;;4.20;;
16352;SDS011;8286;51.274;9.542;2023-01-25T10:00:40;7.83;;;3.97;;
16352;SDS011;8286;51.274;9.542;2023-01-25T10:03:12;9.70;;;4.43;;
16352;SDS011;8286;51.274;9.542;2023-01-25T10:05:45;7.00;;;4.10;;
16352;SDS011;8286;51.274;9.542;2023-01-25T10:08:15;8.33;;;4.07;;
16352;SDS011;8286;51.274;9.542;2023-01-25T10:10:45;6.90;;;4.77;;
16352;SDS011;8286;51.274;9.542;2023-01-25T10:13:14;10.10;;;4.77;;
16352;SDS011;8286;51.274;9.542;2023-01-25T10:15:43;6.70;;;4.37;;
16352;SDS011;8286;51.274;9.542;2023-01-25T10:18:17;8.10;;;4.23;;
16352;SDS011;8286;51.274;9.542;2023-01-25T10:20:48;12.33;;;4.83;;
16352;SDS011;8286;51.274;9.542;2023-01-25T10:23:23;9.43;;;4.97;;
16352;SDS011;8286;51.274;9.542;2023-01-25T10:25:58;7.17;;;4.47;;
16352;SDS011;8286;51.274;9.542;2023-01-25T10:28:29;7.47;;;4.97;;
16352;SDS011;8286;51.274;9.542;2023-01-25T10:31:03;12.13;;;5.50;;
16352;SDS011;8286;51.274;9.542;2023-01-25T10:33:34;9.50;;;5.43;;
16352;SDS011;8286;51.274;9.542;2023-01-25T10:36:04;11.10;;;5.43;;
16352;SDS011;8286;51.274;9.542;2023-01-25T10:38:33;13.03;;;5.67;;
16352;SDS011;8286;51.274;9.542;2023-01-25T10:41:02;10.53;;;5.00;;
16352;SDS011;8286;51.274;9.542;2023-01-25T10:43:30;11.37;;;5.20;;
16352;SDS011;8286;51.274;9.542;2023-01-25T10:45:57;11.20;;;5.40;;
16352;SDS011;8286;51.274;9.542;2023-01-25T10:48:25;9.63;;;5.20;;
16352;SDS011;8286;51.274;9.542;2023-01-25T10:50:56;12.33;;;5.57;;
16352;SDS011;8286;51.274;9.542;2023-01-25T10:53:32;13.17;;;5.37;;
16352;SDS011;8286;51.274;9.542;2023-01-25T10:56:00;10.30;;;5.20;;
16352;SDS011;8286;51.274;9.542;2023-01-25T10:58:31;13.70;;;5.80;;
16352;SDS011;8286;51.274;9.542;2023-01-25T11:00:59;10.87;;;5.37;;
16352;SDS011;8286;51.274;9.542;2023-01-25T11:03:32;11.93;;;5.77;;
16352;SDS011;8286;51.274;9.542;2023-01-25T11:06:01;13.30;;;5.37;;
16352;SDS011;8286;51.274;9.542;2023-01-25T11:08:31;12.20;;;6.00;;
16352;SDS011;8286;51.274;9.542;2023-01-25T11:10:59;10.40;;;4.53;;
16352;SDS011;8286;51.274;9.542;2023-01-25T11:13:26;13.00;;;5.57;;
16352;SDS011;8286;51.274;9.542;2023-01-25T11:15:53;9.37;;;5.50;;
16352;SDS011;8286;51.274;9.542;2023-01-25T11:18:22;9.97;;;5.03;;
16352;SDS011;8286;51.274;9.542;2023-01-25T11:21:05;9.83;;;5.07;;
16352;SDS011;8286;51.274;9.542;2023-01-25T11:23:35;8.93;;;5.13;;
16352;SDS011;8286;51.274;9.542;2023-01-25T11:26:11;12.10;;;5.63;;
16352;SDS011;8286;51.274;9.542;2023-01-25T11:28:39;11.77;;;5.43;;
16352;SDS011;8286;51.274;9.542;2023-01-25T11:31:08;9.90;;;5.30;;
16352;SDS011;8286;51.274;9.542;2023-01-25T11:33:37;7.90;;;4.20;;
16352;SDS011;8286;51.274;9.542;2023-01-25T11:36:08;9.83;;;3.97;;
16352;SDS011;8286;51.274;9.542;2023-01-25T11:38:41;7.97;;;4.23;;
16352;SDS011;8286;51.274;9.542;2023-01-25T11:41:12;8.13;;;4.10;;
16352;SDS011;8286;51.274;9.542;2023-01-25T11:43:49;7.37;;;4.50;;
16352;SDS011;8286;51.274;9.542;2023-01-25T11:46:24;8.00;;;4.57;;
16352;SDS011;8286;51.274;9.542;2023-01-25T11:49:09;8.00;;;4.77;;
16352;SDS011;8286;51.274;9.542;2023-01-25T11:51:45;8.03;;;4.07;;
16352;SDS011;8286;51.274;9.542;2023-01-25T11:54:29;7.27;;;4.17;;
16352;SDS011;8286;51.274;9.542;2023-01-25T11:57:06;8.13;;;4.53;;
16352;SDS011;8286;51.274;9.542;2023-01-25T11:59:57;9.27;;;4.37;;
16352;SDS011;8286;51.274;9.542;2023-01-25T12:05:31;9.80;;;4.87;;
16352;SDS011;8286;51.274;9.542;2023-01-25T12:08:23;7.60;;;4.37;;
16352;SDS011;8286;51.274;9.542;2023-01-25T12:11:04;11.73;;;4.83;;
16352;SDS011;8286;51.274;9.542;2023-01-25T12:13:35;9.47;;;4.70;;
16352;SDS011;8286;51.274;9.542;2023-01-25T12:16:14;9.70;;;5.03;;
16352;SDS011;8286;51.274;9.542;2023-01-25T12:21:45;13.63;;;5.80;;
16352;SDS011;8286;51.274;9.542;2023-01-25T12:24:25;15.93;;;6.40;;
16352;SDS011;8286;51.274;9.542;2023-01-25T12:27:04;11.80;;;5.20;;
16352;SDS011;8286;51.274;9.542;2023-01-25T12:29:36;10.03;;;4.87;;
16352;SDS011;8286;51.274;9.542;2023-01-25T12:32:06;14.83;;;5.90;;
16352;SDS011;8286;51.274;9.542;2023-01-25T12:34:36;14.70;;;5.77;;
16352;SDS011;8286;51.274;9.542;2023-01-25T12:37:05;15.93;;;5.50;;
16352;SDS011;8286;51.274;9.542;2023-01-25T12:39:41;12.13;;;5.87;;
16352;SDS011;8286;51.274;9.542;2023-01-25T12:42:11;14.30;;;6.10;;
16352;SDS011;8286;51.274;9.542;2023-01-25T12:44:42;16.27;;;5.60;;
16352;SDS011;8286;51.274;9.542;2023-01-25T12:47:11;15.47;;;6.53;;
16352;SDS011;8286;51.274;9.542;2023-01-25T12:49:41;13.80;;;5.70;;
16352;SDS011;8286;51.274;9.542;2023-01-25T12:52:14;14.97;;;5.97;;
16352;SDS011;8286;51.274;9.542;2023-01-25T12:54:47;16.57;;;6.27;;
16352;SDS011;8286;51.274;9.542;2023-01-25T12:57:15;14.00;;;6.67;;
16352;SDS011;8286;51.274;9.542;2023-01-25T12:59:48;11.47;;;5.83;;
16352;SDS011;8286;51.274;9.542;2023-01-25T13:02:21;16.47;;;6.50;;
16352;SDS011;8286;51.274;9.542;2023-01-25T13:04:57;19.43;;;6.67;;
16352;SDS011;8286;51.274;9.542;2023-01-25T13:07:27;15.93;;;6.50;;
16352;SDS011;8286;51.274;9.542;2023-01-25T13:10:01;12.77;;;6.60;;
16352;SDS011;8286;51.274;9.542;2023-01-25T13:12:48;15.37;;;5.77;;
16352;SDS011;8286;51.274;9.542;2023-01-25T13:18:00;13.97;;;6.87;;
16352;SDS011;8286;51.274;9.542;2023-01-25T13:20:46;19.03;;;6.83;;
16352;SDS011;8286;51.274;9.542;2023-01-25T13:23:26;12.13;;;5.27;;
16352;SDS011;8286;51.274;9.542;2023-01-25T13:28:59;15.17;;;6.33;;
16352;SDS011;8286;51.274;9.542;2023-01-25T13:34:12;20.67;;;7.93;;
16352;SDS011;8286;51.274;9.542;2023-01-25T13:37:27;11.60;;;5.93;;
16352;SDS011;8286;51.274;9.542;2023-01-25T13:39:55;14.63;;;5.47;;
16352;SDS011;8286;51.274;9.542;2023-01-25T13:42:23;13.60;;;5.87;;
16352;SDS011;8286;51.274;9.542;2023-01-25T13:44:51;15.40;;;6.27;;
16352;SDS011;8286;51.274;9.542;2023-01-25T13:47:19;10.77;;;5.93;;
16352;SDS011;8286;51.274;9.542;2023-01-25T13:49:48;12.37;;;5.27;;
16352;SDS011;8286;51.274;9.542;2023-01-25T13:52:19;16.33;;;6.07;;
16352;SDS011;8286;51.274;9.542;2023-01-25T13:54:49;14.23;;;6.37;;
16352;SDS011;8286;51.274;9.542;2023-01-25T13:57:19;14.13;;;5.77;;
16352;SDS011;8286;51.274;9.542;2023-01-25T13:59:47;15.27;;;6.73;;
16352;SDS011;8286;51.274;9.542;2023-01-25T14:02:15;11.27;;;6.60;;
16352;SDS011;8286;51.274;9.542;2023-01-25T14:04:44;15.30;;;6.23;;
16352;SDS011;8286;51.274;9.542;2023-01-25T14:07:13;16.43;;;6.00;;
16352;SDS011;8286;51.274;9.542;2023-01-25T14:09:42;11.90;;;6.47;;
16352;SDS011;8286;51.274;9.542;2023-01-25T14:12:10;12.63;;;6.20;;
16352;SDS011;8286;51.274;9.542;2023-01-25T14:14:37;14.53;;;5.73;;
16352;SDS011;8286;51.274;9.542;2023-01-25T14:17:12;10.47;;;5.50;;
16352;SDS011;8286;51.274;9.542;2023-01-25T14:19:40;12.53;;;5.57;;
16352;SDS011;8286;51.274;9.542;2023-01-25T14:22:13;11.83;;;5.77;;
16352;SDS011;8286;51.274;9.542;2023-01-25T14:25:06;12.27;;;6.10;;
16352;SDS011;8286;51.274;9.542;2023-01-25T14:27:41;11.27;;;5.43;;
16352;SDS011;8286;51.274;9.542;2023-01-25T14:30:14;12.70;;;5.27;;
16352;SDS011;8286;51.274;9.542;2023-01-25T14:32:41;11.53;;;6.10;;
16352;SDS011;8286;51.274;9.542;2023-01-25T14:35:31;11.80;;;5.50;;
16352;SDS011;8286;51.274;9.542;2023-01-25T14:37:58;11.90;;;5.50;;
16352;SDS011;8286;51.274;9.542;2023-01-25T14:40:26;11.73;;;5.30;;
16352;SDS011;8286;51.274;9.542;2023-01-25T14:42:55;15.10;;;6.60;;
16352;SDS011;8286;51.274;9.542;2023-01-25T14:45:22;12.37;;;5.53;;
16352;SDS011;8286;51.274;9.542;2023-01-25T14:47:51;12.57;;;5.90;;
16352;SDS011;8286;51.274;9.542;2023-01-25T14:50:27;10.97;;;5.90;;
16352;SDS011;8286;51.274;9.542;2023-01-25T14:52:57;13.53;;;6.17;;
16352;SDS011;8286;51.274;9.542;2023-01-25T14:55:25;12.13;;;6.23;;
16352;SDS011;8286;51.274;9.542;2023-01-25T14:57:59;11.80;;;5.87;;
16352;SDS011;8286;51.274;9.542;2023-01-25T15:00:27;15.13;;;6.67;;
16352;SDS011;8286;51.274;9.542;2023-01-25T15:02:56;16.93;;;7.00;;
16352;SDS011;8286;51.274;9.542;2023-01-25T15:05:24;12.17;;;6.10;;
16352;SDS011;8286;51.274;9.542;2023-01-25T15:07:52;12.77;;;6.23;;
16352;SDS011;8286;51.274;9.542;2023-01-25T15:10:20;16.03;;;5.60;;
16352;SDS011;8286;51.274;9.542;2023-01-25T15:12:54;16.47;;;6.87;;
16352;SDS011;8286;51.274;9.542;2023-01-25T15:15:26;12.50;;;5.77;;
16352;SDS011;8286;51.274;9.542;2023-01-25T15:17:54;12.83;;;5.87;;
16352;SDS011;8286;51.274;9.542;2023-01-25T15:20:31;11.17;;;5.63;;
16352;SDS011;8286;51.274;9.542;2023-01-25T15:25:34;12.20;;;5.77;;
16352;SDS011;8286;51.274;9.542;2023-01-25T15:28:13;16.27;;;5.73;;